Cambridge, MA (02138)

9:20 PM EDT on July 26, 2016 (GMT -0400)
Huron Village | | Change Station

Elev 62 ft 42.38 °N, 71.13 °W | Updated 4 minutes ago

Scattered Clouds
Scattered Clouds
81.8 °F
Feels Like 82 °F
N
0.0
Wind Variable Wind from North
Gusts 0.0 mph

Today
High -- | Low -- °F
--% Chance of Precip.
Yesterday
High -- | Low -- °F
Precip. -- in
Pressure 29.83 in
Visibility 10.0 miles
Clouds Few 9000 ft
Scattered Clouds 25000 ft
Heat Index 82 °F
Dew Point 59 °F
Humidity 46%
Rainfall 0.00 in
Snow Depth Not available.
5:31 AM 8:10 PM
Waning Gibbous, 49% visible
METAR KBOS 270054Z 34011KT 10SM FEW090 SCT250 31/15 A2983 RMK AO2 SLP100 T03060150
Pressure 29.83 in
Visibility 10.0 miles
Clouds Few 9000 ft
Scattered Clouds 25000 ft
Heat Index 82 °F
Dew Point 59 °F
Humidity 46%
Rainfall 0.00 in
Snow Depth Not available.
5:31 AM 8:10 PM
Waning Gibbous, 49% visible
METAR KBOS 270054Z 34011KT 10SM FEW090 SCT250 31/15 A2983 RMK AO2 SLP100 T03060150

10-Day Weather Forecast

Almanac

Astronomy

Jul. 26, 2016 Rise Set
Actual Time
Civil Twilight
Nautical Twilight
Astronomical Twilight
Moon
Length of Visible Light
Length of Day
Tomorrow will be .
, % of the Moon is Illuminated

Today's Extremes

State Highs State Lows

Community

WunderPhotos

Upload Photos

1,927,762 photos uploaded!

WunderBlog® & News

Nearby

Air Quality

  Air Quality AQ Index Pollutant
Not available.

Snow Depth

Station Depth Elevation

Earthquake Activity

City Distance Mag. Time & Date
Minimum magnitude displayed is 2.5.

Coastal Water Temperatures

Place Temperature

Stations

Nearby Weather Stations

Station Location Temp. Windchill Dew Point Humidity Wind Precip. Elev Updated Type
                   

Watches & Warnings

There are currently no watches in effect.